Time;durP1;ratioP1;P1;durP2;ratioP2;P2;SDS_P1;SDS_P2;PMS_P1;PMS_P2;Temp;Humidity;BMP_temperature;BMP_pressure;BME280_temperature;BME280_humidity;BME280_pressure;Samples;Min_cycle;Max_cycle;Signal;HPM_P1;HPM_P2
2022/12/06 00:01:14;;;;;;;;;;;2.60;99.90;;;;;;5105231;28;20092;-60
2022/12/06 00:03:42;;;;;;;21.05;10.73;;;2.60;99.90;;;;;;5095196;28;19920;-61
2022/12/06 00:06:15;;;;;;;26.02;12.02;;;2.60;99.90;;;;;;5089575;28;20627;-61
2022/12/06 00:08:42;;;;;;;25.48;12.57;;;2.60;99.90;;;;;;5102627;28;20040;-60
2022/12/06 00:11:10;;;;;;;;;;;2.60;99.90;;;;;;5101529;28;20114;-60
2022/12/06 00:13:38;;;;;;;27.77;13.73;;;2.60;99.90;;;;;;5092493;28;19973;-61
2022/12/06 00:16:08;;;;;;;31.83;12.52;;;2.60;99.90;;;;;;5093893;28;20044;-61
2022/12/06 00:18:36;;;;;;;33.15;13.02;;;2.60;99.90;;;;;;5104489;28;20467;-61
2022/12/06 00:21:15;;;;;;;27.75;12.93;;;2.70;99.90;;;;;;5087751;28;20044;-59
2022/12/06 00:23:44;;;;;;;31.42;13.70;;;2.60;99.90;;;;;;5088151;28;20070;-59
2022/12/06 00:26:12;;;;;;;22.00;11.95;;;2.60;99.90;;;;;;5108307;28;20047;-61
2022/12/06 00:28:39;;;;;;;18.05;9.45;;;2.70;99.90;;;;;;5104848;28;20035;-59
2022/12/06 00:31:09;;;;;;;21.92;9.93;;;2.60;99.90;;;;;;5097880;28;20052;-62
2022/12/06 00:33:36;;;;;;;19.33;10.68;;;2.30;99.90;;;;;;5104554;28;20085;-61
2022/12/06 00:36:13;;;;;;;25.35;10.80;;;2.40;99.90;;;;;;5111785;28;20039;-60
2022/12/06 00:38:40;;;;;;;24.03;9.40;;;2.40;99.90;;;;;;5111872;28;20036;-61
2022/12/06 00:41:09;;;;;;;22.52;10.75;;;2.40;99.90;;;;;;5097507;28;20701;-61
2022/12/06 00:43:37;;;;;;;23.67;10.57;;;2.50;99.90;;;;;;5092400;28;20040;-61
2022/12/06 00:46:07;;;;;;;21.23;11.07;;;2.50;99.90;;;;;;5092299;28;20043;-61
2022/12/06 00:48:34;;;;;;;22.55;11.65;;;2.50;99.90;;;;;;5092302;28;20404;-61
2022/12/06 00:51:00;;;;;;;19.20;9.63;;;2.40;99.90;;;;;;5097812;28;20040;-61
2022/12/06 00:53:27;;;;;;;27.58;13.75;;;2.40;99.90;;;;;;5112367;28;20032;-61
2022/12/06 00:55:54;;;;;;;31.25;14.85;;;2.50;99.90;;;;;;5112811;28;20488;-61
2022/12/06 00:58:22;;;;;;;38.17;16.42;;;2.50;99.90;;;;;;5100715;28;20036;-61
2022/12/06 01:00:49;;;;;;;;;;;2.50;99.90;;;;;;5096373;28;20559;-61
2022/12/06 01:03:16;;;;;;;31.48;15.32;;;2.60;99.90;;;;;;5090959;28;19927;-61
2022/12/06 01:05:47;;;;;;;35.25;15.52;;;2.60;99.90;;;;;;5087075;28;20409;-61
2022/12/06 01:08:16;;;;;;;36.97;15.82;;;2.70;99.90;;;;;;5088164;28;20089;-61
2022/12/06 01:10:52;;;;;;;29.05;9.70;;;2.60;99.90;;;;;;5091631;28;20064;-61
2022/12/06 01:13:19;;;;;;;12.50;7.13;;;2.60;99.90;;;;;;5093565;28;20063;-61
2022/12/06 01:15:45;;;;;;;20.80;7.97;;;2.60;99.90;;;;;;5112379;28;20062;-61
2022/12/06 01:18:12;;;;;;;11.13;5.90;;;2.60;99.90;;;;;;5111710;28;20122;-60
2022/12/06 01:20:39;;;;;;;11.80;5.95;;;2.50;99.90;;;;;;5110518;28;20158;-61
2022/12/06 01:23:06;;;;;;;14.40;6.75;;;2.50;99.90;;;;;;5102845;28;20071;-61
2022/12/06 01:25:32;;;;;;;15.25;7.15;;;2.60;99.90;;;;;;5106190;28;20112;-61
2022/12/06 01:28:02;;;;;;;122.38;14.18;;;2.60;99.90;;;;;;5094969;28;20058;-61
2022/12/06 01:30:29;;;;;;;13.25;5.97;;;2.60;99.90;;;;;;5108290;28;20036;-61
2022/12/06 01:32:56;;;;;;;10.05;5.75;;;2.60;99.90;;;;;;5091204;28;20047;-61
2022/12/06 01:35:22;;;;;;;6.82;4.03;;;2.50;99.90;;;;;;5111354;28;20071;-61
2022/12/06 01:37:49;;;;;;;16.83;7.30;;;2.60;99.90;;;;;;5110466;28;20515;-61
2022/12/06 01:40:16;;;;;;;17.73;7.90;;;2.50;99.90;;;;;;5091771;28;20067;-60
2022/12/06 01:42:42;;;;;;;12.90;6.53;;;2.60;99.90;;;;;;5091868;28;20401;-61
2022/12/06 01:45:09;;;;;;;20.50;9.35;;;2.60;99.90;;;;;;5091719;28;20048;-61
2022/12/06 01:47:41;;;;;;;22.88;8.82;;;2.60;99.90;;;;;;5097908;28;20098;-61
2022/12/06 01:50:14;;;;;;;21.48;9.65;;;2.70;99.90;;;;;;5102228;28;20077;-61
2022/12/06 01:52:59;;;;;;;27.63;12.80;;;2.70;99.90;;;;;;5111553;28;20108;-61
2022/12/06 01:55:28;;;;;;;31.02;13.48;;;2.70;99.90;;;;;;5100967;28;20134;-61
2022/12/06 01:57:59;;;;;;;35.83;15.45;;;2.70;99.90;;;;;;5111739;28;20124;-61
2022/12/06 02:00:26;;;;;;;30.05;13.75;;;2.70;99.90;;;;;;5108093;28;20043;-61
2022/12/06 02:02:56;;;;;;;34.42;14.30;;;2.70;99.90;;;;;;5108167;28;20427;-61
2022/12/06 02:05:24;;;;;;;28.60;13.13;;;2.70;99.90;;;;;;5123313;22;20048;-60
2022/12/06 02:07:52;;;;;;;30.23;13.73;;;2.70;99.90;;;;;;5090476;28;20036;-60
2022/12/06 02:10:19;;;;;;;28.45;13.30;;;2.80;99.90;;;;;;5093760;28;20119;-60
2022/12/06 02:12:50;;;;;;;26.88;12.38;;;2.80;99.90;;;;;;5111243;28;20092;-60
2022/12/06 02:15:18;;;;;;;25.80;12.07;;;2.80;99.90;;;;;;5110880;28;20385;-60
2022/12/06 02:18:20;;;;;;;27.48;12.35;;;2.70;99.90;;;;;;5096107;28;20159;-60
2022/12/06 02:20:58;;;;;;;36.53;15.32;;;2.80;99.90;;;;;;5053883;28;20055;-60
2022/12/06 02:24:04;;;;;;;38.28;16.60;;;2.80;99.90;;;;;;5110646;28;20075;-60
2022/12/06 02:26:43;;;;;;;38.17;16.52;;;2.80;99.90;;;;;;5096438;28;20040;-60
2022/12/06 02:29:27;;;;;;;44.03;17.40;;;2.70;99.90;;;;;;5110152;28;20469;-60
2022/12/06 02:32:06;;;;;;;42.13;18.77;;;2.70;99.90;;;;;;5110496;28;20067;-60
2022/12/06 02:34:42;;;;;;;36.33;15.75;;;2.70;99.90;;;;;;5094844;28;20063;-60
2022/12/06 02:37:15;;;;;;;37.00;15.07;;;2.70;99.90;;;;;;5111168;28;20044;-60
2022/12/06 02:39:52;;;;;;;34.30;15.13;;;2.80;99.90;;;;;;5110880;28;20504;-59
2022/12/06 02:42:27;;;;;;;31.80;13.68;;;2.80;99.90;;;;;;5111215;28;20548;-60
2022/12/06 02:44:58;;;;;;;24.00;10.05;;;2.80;99.90;;;;;;5096126;28;20557;-60
2022/12/06 02:47:31;;;;;;;20.30;9.23;;;2.80;99.90;;;;;;5084132;28;20040;-59
2022/12/06 02:50:01;;;;;;;16.70;8.43;;;2.80;99.90;;;;;;5091464;28;20048;-60
2022/12/06 02:52:30;;;;;;;23.88;9.73;;;2.80;99.90;;;;;;5090167;28;20032;-59
2022/12/06 02:55:00;;;;;;;22.58;10.25;;;2.80;99.90;;;;;;5082817;28;20075;-59
2022/12/06 02:57:41;;;;;;;21.88;10.07;;;2.80;99.90;;;;;;5094859;28;20402;-59
2022/12/06 03:00:36;;;;;;;27.83;12.95;;;2.70;99.90;;;;;;5111552;28;20051;-60
2022/12/06 03:03:24;;;;;;;39.42;15.70;;;2.80;99.90;;;;;;5110521;28;20044;-59
2022/12/06 03:06:03;;;;;;;50.28;19.38;;;2.70;99.90;;;;;;5097231;28;20036;-60
2022/12/06 03:08:48;;;;;;;50.35;18.58;;;2.70;99.90;;;;;;5084798;28;20516;-59
2022/12/06 03:11:15;;;;;;;43.78;19.27;;;2.80;99.90;;;;;;5091108;28;20070;-60
2022/12/06 03:14:02;;;;;;;40.65;14.85;;;2.80;99.90;;;;;;5082791;28;20075;-60
2022/12/06 03:16:41;;;;;;;39.40;15.88;;;2.70;99.90;;;;;;5084583;28;20064;-60
2022/12/06 03:19:23;;;;;;;38.92;15.70;;;2.70;99.90;;;;;;5091081;28;20089;-59
2022/12/06 03:22:02;;;;;;;36.60;14.95;;;2.70;99.90;;;;;;5104418;28;20092;-60
2022/12/06 03:24:34;;;;;;;33.97;14.43;;;2.70;99.90;;;;;;5110399;28;20044;-60
2022/12/06 03:27:06;;;;;;;39.90;13.90;;;2.70;99.90;;;;;;5111677;28;20499;-59
2022/12/06 03:29:36;;;;;;;39.30;14.63;;;2.60;99.90;;;;;;5083617;28;20078;-60
2022/12/06 03:32:06;;;;;;;36.08;12.75;;;2.50;99.90;;;;;;5112561;28;20384;-60
2022/12/06 03:34:43;;;;;;;34.05;13.70;;;2.50;99.90;;;;;;5097121;28;20085;-59
2022/12/06 03:37:16;;;;;;;30.13;12.82;;;2.50;99.90;;;;;;5103533;28;20072;-59
2022/12/06 03:40:09;;;;;;;32.95;12.15;;;2.50;99.90;;;;;;5090377;28;20075;-60
2022/12/06 03:42:36;;;;;;;43.63;15.75;;;2.50;99.90;;;;;;5080224;28;20055;-59
2022/12/06 03:45:03;;;;;;;;;;;2.40;99.90;;;;;;5084775;28;20076;-60
2022/12/06 03:47:32;;;;;;;45.10;16.45;;;2.50;99.90;;;;;;5074404;28;19924;-60
2022/12/06 03:50:08;;;;;;;44.65;16.35;;;2.50;99.90;;;;;;5073528;28;20052;-60
2022/12/06 03:52:37;;;;;;;43.20;16.13;;;2.50;99.90;;;;;;5074148;28;20099;-60
2022/12/06 03:55:04;;;;;;;43.13;16.08;;;2.60;99.90;;;;;;5090038;28;20407;-59
2022/12/06 03:57:31;;;;;;;44.03;15.80;;;2.70;99.90;;;;;;5087784;28;20052;-60
2022/12/06 03:59:57;;;;;;;41.97;16.75;;;2.70;99.90;;;;;;5114132;28;20492;-60
2022/12/06 04:02:24;;;;;;;48.10;16.90;;;2.70;99.90;;;;;;5113159;28;20067;-59
2022/12/06 04:04:51;;;;;;;47.30;17.70;;;2.70;99.90;;;;;;5113991;28;20561;-60
2022/12/06 04:07:20;;;;;;;47.97;17.48;;;2.70;99.90;;;;;;5095909;28;20071;-60
2022/12/06 04:10:01;;;;;;;43.33;16.80;;;2.70;99.90;;;;;;5093508;28;20450;-60
2022/12/06 04:15:36;;;;;;;44.40;16.48;;;2.70;99.90;;;;;;5055162;28;20139;-60
2022/12/06 04:18:14;;;;;;;38.35;14.93;;;2.70;99.90;;;;;;5083586;28;20055;-60
2022/12/06 04:23:49;;;;;;;35.42;12.60;;;2.60;99.90;;;;;;5113566;28;20093;-60
2022/12/06 04:26:18;;;;;;;32.13;12.70;;;2.70;99.90;;;;;;5113812;28;20067;-60
2022/12/06 04:39:48;;;;;;;24.40;9.80;;;2.50;99.90;;;;;;5104687;28;20128;-60
2022/12/06 04:45:00;;;;;;;29.20;11.85;;;2.50;99.90;;;;;;5113552;28;20097;-60
2022/12/06 04:47:27;;;;;;;29.00;12.50;;;2.50;99.90;;;;;;5092065;28;20078;-60
2022/12/06 04:49:54;;;;;;;19.42;8.38;;;2.50;99.90;;;;;;5113279;28;20048;-59
2022/12/06 04:52:20;;;;;;;31.48;12.27;;;2.50;99.90;;;;;;5106087;28;20115;-59
2022/12/06 04:54:47;;;;;;;18.85;8.93;;;2.50;99.90;;;;;;5113138;28;20031;-60
2022/12/06 04:57:15;;;;;;;30.50;12.27;;;2.50;99.90;;;;;;5112147;28;20031;-60
2022/12/06 04:59:44;;;;;;;34.28;14.10;;;3.10;99.90;;;;;;5113055;28;20044;-60
2022/12/06 05:02:13;;;;;;;32.70;12.30;;;2.60;99.90;;;;;;5089101;28;20480;-59
2022/12/06 05:04:40;;;;;;;31.92;12.77;;;2.60;99.90;;;;;;5087624;28;20097;-59
2022/12/06 05:07:08;;;;;;;34.63;13.55;;;2.60;99.90;;;;;;5092447;28;20040;-60
2022/12/06 05:09:35;;;;;;;30.50;12.35;;;2.70;99.90;;;;;;5105643;28;20035;-60
2022/12/06 05:12:02;;;;;;;30.27;12.70;;;2.70;99.90;;;;;;5089995;28;20109;-60
2022/12/06 05:14:29;;;;;;;33.75;14.43;;;2.70;99.90;;;;;;5083770;28;20039;-60
2022/12/06 05:16:55;;;;;;;33.58;13.70;;;2.70;99.90;;;;;;5091717;28;20512;-60
2022/12/06 05:19:22;;;;;;;30.58;12.55;;;2.70;99.90;;;;;;5092320;28;20090;-60
2022/12/06 05:21:49;;;;;;;27.08;11.45;;;2.60;99.90;;;;;;5087041;28;20098;-60
2022/12/06 05:24:16;;;;;;;24.67;10.90;;;2.60;99.90;;;;;;5086883;28;20094;-60
2022/12/06 05:26:42;;;;;;;23.60;10.63;;;2.60;99.90;;;;;;5095275;28;20067;-60
2022/12/06 05:29:09;;;;;;;23.23;10.63;;;2.60;99.90;;;;;;5109817;28;20051;-60
2022/12/06 05:31:36;;;;;;;22.33;9.75;;;2.50;99.90;;;;;;5090293;28;20508;-60
2022/12/06 05:34:02;;;;;;;17.83;9.77;;;2.50;99.90;;;;;;5089690;28;20047;-60
2022/12/06 05:36:29;;;;;;;19.58;8.07;;;2.40;99.90;;;;;;5103939;28;20067;-59
2022/12/06 05:38:56;;;;;;;24.45;10.95;;;2.40;99.90;;;;;;5111478;28;20071;-60
2022/12/06 05:41:23;;;;;;;24.75;11.77;;;2.40;99.90;;;;;;5084733;28;20071;-59
2022/12/06 05:43:50;;;;;;;;;;;2.40;99.90;;;;;;5091747;28;20082;-59
2022/12/06 05:46:17;;;;;;;25.00;11.32;;;2.30;99.90;;;;;;5090682;28;20049;-60
2022/12/06 05:48:44;;;;;;;24.63;11.13;;;2.30;99.90;;;;;;5062166;28;20056;-59
2022/12/06 05:51:11;;;;;;;22.63;10.32;;;2.20;99.90;;;;;;5088463;28;20059;-59
2022/12/06 05:53:39;;;;;;;19.05;8.00;;;2.20;99.90;;;;;;5075117;28;20044;-59
2022/12/06 05:56:09;;;;;;;19.67;10.13;;;2.20;99.90;;;;;;5072924;28;20036;-60
2022/12/06 05:58:36;;;;;;;17.73;9.25;;;2.10;99.90;;;;;;5091964;28;20546;-60
2022/12/06 06:01:04;;;;;;;19.45;7.95;;;2.10;99.90;;;;;;5097925;28;20075;-60
2022/12/06 06:03:31;;;;;;;14.20;6.50;;;2.00;99.90;;;;;;5109444;28;20044;-59
2022/12/06 06:05:59;;;;;;;15.15;6.40;;;2.00;99.90;;;;;;5101845;28;20043;-59
2022/12/06 06:08:27;;;;;;;15.25;7.00;;;1.90;99.90;;;;;;5087203;28;20071;-59
2022/12/06 06:10:55;;;;;;;13.20;6.25;;;1.90;99.90;;;;;;5068577;28;20112;-59
2022/12/06 06:13:22;;;;;;;12.70;5.80;;;1.80;99.90;;;;;;5091090;28;20069;-59
2022/12/06 06:15:49;;;;;;;18.95;8.93;;;1.70;99.90;;;;;;5080461;28;20044;-60
2022/12/06 06:18:17;;;;;;;15.68;7.90;;;1.70;99.90;;;;;;5111425;28;20071;-59
2022/12/06 06:20:49;;;;;;;15.88;8.18;;;1.70;99.90;;;;;;5110859;28;20051;-59
2022/12/06 06:23:16;;;;;;;16.30;8.18;;;1.80;99.90;;;;;;5069845;28;20510;-59
2022/12/06 06:25:43;;;;;;;12.30;6.45;;;1.80;99.90;;;;;;5078148;28;20499;-59
2022/12/06 06:28:10;;;;;;;17.15;9.88;;;1.70;99.90;;;;;;5111127;28;20487;-59
2022/12/06 06:30:37;;;;;;;17.63;8.13;;;1.70;99.90;;;;;;5090970;28;20047;-59
2022/12/06 06:33:03;;;;;;;14.93;8.02;;;1.70;99.90;;;;;;5090558;28;20491;-59
2022/12/06 06:35:30;;;;;;;13.60;6.07;;;1.70;99.90;;;;;;5088161;28;20122;-59
2022/12/06 06:37:57;;;;;;;17.65;8.23;;;1.70;99.90;;;;;;5107482;28;20558;-60
2022/12/06 06:40:24;;;;;;;14.80;7.60;;;1.70;99.90;;;;;;5110892;28;20665;-60
2022/12/06 06:42:50;;;;;;;16.13;7.40;;;1.70;99.90;;;;;;5107519;28;20074;-59
2022/12/06 06:45:17;;;;;;;14.63;7.00;;;1.70;99.90;;;;;;5102781;28;20119;-60
2022/12/06 06:47:50;;;;;;;17.40;7.57;;;1.60;99.90;;;;;;5088204;28;20040;-60
2022/12/06 06:50:17;;;;;;;10.48;5.10;;;1.60;99.90;;;;;;5090638;28;20040;-60
2022/12/06 06:52:44;;;;;;;12.80;5.95;;;1.60;99.90;;;;;;5088143;28;20082;-60
2022/12/06 06:55:11;;;;;;;14.60;7.03;;;1.50;99.90;;;;;;5091870;28;20233;-60
2022/12/06 06:57:40;;;;;;;14.90;7.20;;;1.50;99.90;;;;;;5090518;28;20122;-60
2022/12/06 07:00:08;;;;;;;16.75;8.77;;;1.50;99.90;;;;;;5082597;28;20040;-60
2022/12/06 07:02:34;;;;;;;11.80;6.45;;;1.50;99.90;;;;;;5100987;28;20067;-60
2022/12/06 07:05:02;;;;;;;8.05;4.88;;;1.50;99.90;;;;;;5114718;28;20461;-60
2022/12/06 07:07:30;;;;;;;;;;;1.50;99.90;;;;;;5115263;28;20074;-59
2022/12/06 07:09:57;;;;;;;11.68;6.20;;;1.50;99.90;;;;;;5092530;28;19974;-60
2022/12/06 07:12:24;;;;;;;;;;;1.40;99.90;;;;;;5087563;28;20385;-59
2022/12/06 07:14:51;;;;;;;10.45;5.53;;;1.40;99.90;;;;;;5094725;28;19920;-59
2022/12/06 07:17:17;;;;;;;13.52;5.82;;;1.40;99.90;;;;;;5094443;28;20086;-60
2022/12/06 07:19:44;;;;;;;12.88;5.95;;;1.30;99.90;;;;;;5106020;28;20035;-60
2022/12/06 07:22:11;;;;;;;9.88;4.40;;;1.30;99.90;;;;;;5114296;28;20047;-60
2022/12/06 07:24:38;;;;;;;13.73;6.53;;;1.40;99.90;;;;;;5096548;28;20036;-60
2022/12/06 07:27:10;;;;;;;36.67;15.30;;;1.40;99.90;;;;;;5109407;28;20374;-60
2022/12/06 07:29:37;;;;;;;;;;;1.40;99.90;;;;;;5086242;28;20063;-59
2022/12/06 07:32:04;;;;;;;37.92;14.48;;;1.40;99.90;;;;;;5094055;28;19958;-60
2022/12/06 07:34:32;;;;;;;26.25;12.05;;;1.40;99.90;;;;;;5090165;28;20044;-60
2022/12/06 07:36:58;;;;;;;22.08;9.55;;;1.40;99.90;;;;;;5082215;28;20048;-59
2022/12/06 07:39:25;;;;;;;15.32;7.65;;;1.40;99.90;;;;;;5097270;28;20483;-60
2022/12/06 07:45:00;;;;;;;21.75;10.93;;;1.40;99.90;;;;;;5071868;28;20139;-59
2022/12/06 07:47:33;;;;;;;20.10;8.77;;;1.50;99.90;;;;;;5073775;28;20036;-60
2022/12/06 07:50:00;;;;;;;16.30;7.88;;;1.50;99.90;;;;;;5073447;28;20536;-60
2022/12/06 07:52:32;;;;;;;24.90;12.43;;;1.50;99.90;;;;;;5073332;28;20115;-60
2022/12/06 07:54:59;;;;;;;30.02;13.30;;;1.50;99.90;;;;;;5109136;28;20074;-60
2022/12/06 07:57:26;;;;;;;23.75;10.20;;;1.50;99.90;;;;;;5113664;28;20047;-60
2022/12/06 07:59:54;;;;;;;17.77;9.35;;;1.60;99.90;;;;;;5114198;28;20074;-59
2022/12/06 08:02:27;;;;;;;20.50;9.30;;;1.60;99.90;;;;;;5094704;28;20036;-59
2022/12/06 08:04:53;;;;;;;20.33;9.23;;;1.60;99.90;;;;;;5105411;28;20459;-60
2022/12/06 08:07:22;;;;;;;22.77;10.13;;;1.60;99.90;;;;;;5102043;22;20040;-67
2022/12/06 08:09:50;;;;;;;23.15;10.05;;;1.50;99.90;;;;;;5082636;28;20128;-62
2022/12/06 08:12:18;;;;;;;19.58;9.38;;;1.50;99.90;;;;;;5081129;28;20040;-62
2022/12/06 08:14:44;;;;;;;23.10;10.10;;;1.60;99.90;;;;;;5073287;28;20048;-61
2022/12/06 08:17:11;;;;;;;19.77;8.88;;;1.60;99.90;;;;;;5055393;28;20068;-61
2022/12/06 08:19:38;;;;;;;22.38;9.00;;;1.60;99.90;;;;;;5085044;28;20083;-61
2022/12/06 08:22:05;;;;;;;17.02;7.63;;;1.60;99.90;;;;;;5091090;28;20068;-61
2022/12/06 08:24:31;;;;;;;27.92;12.25;;;2.20;99.90;;;;;;5092927;28;20083;-61
2022/12/06 08:26:59;;;;;;;18.27;7.60;;;1.60;99.90;;;;;;5093497;28;20070;-61
2022/12/06 08:29:26;;;;;;;20.58;9.70;;;1.70;99.90;;;;;;5090553;28;20839;-61
2022/12/06 08:31:52;;;;;;;22.67;8.90;;;1.70;99.90;;;;;;5081049;28;20072;-61
2022/12/06 08:34:20;;;;;;;26.35;10.73;;;1.70;99.90;;;;;;5093419;28;20063;-61
2022/12/06 08:36:46;;;;;;;23.73;9.95;;;1.80;99.90;;;;;;5092898;28;20052;-61
2022/12/06 08:39:13;;;;;;;15.68;8.60;;;2.00;99.90;;;;;;5088416;28;20097;-61
2022/12/06 08:41:57;;;;;;;20.92;8.45;;;2.10;99.90;;;;;;5084397;28;20262;-61
2022/12/06 08:44:25;;;;;;;27.13;10.18;;;2.20;99.90;;;;;;5093133;28;20538;-61
2022/12/06 08:46:53;;;;;;;20.90;9.75;;;2.40;99.90;;;;;;5091598;28;20110;-61
2022/12/06 08:49:21;;;;;;;17.45;7.82;;;2.40;99.90;;;;;;5080126;28;20131;-61
2022/12/06 08:51:48;;;;;;;16.33;7.50;;;2.50;99.90;;;;;;5088273;28;20508;-61
2022/12/06 08:54:17;;;;;;;17.08;8.07;;;2.60;99.90;;;;;;5092836;28;20441;-61
2022/12/06 08:56:44;;;;;;;14.93;7.30;;;2.80;99.90;;;;;;5089222;28;20028;-61
2022/12/06 08:59:11;;;;;;;14.60;7.30;;;2.90;99.90;;;;;;5073328;28;20041;-61
2022/12/06 09:01:39;;;;;;;16.20;7.88;;;3.00;99.90;;;;;;5078112;28;20063;-61
2022/12/06 09:04:07;;;;;;;13.95;6.13;;;3.00;99.90;;;;;;5092601;28;20052;-62
2022/12/06 09:06:37;;;;;;;16.65;8.27;;;3.00;99.90;;;;;;5080671;28;20040;-61
2022/12/06 09:09:04;;;;;;;19.60;9.25;;;3.10;99.90;;;;;;5072267;28;20458;-61
2022/12/06 09:11:31;;;;;;;16.38;8.50;;;3.20;99.90;;;;;;5070851;28;20095;-61
2022/12/06 09:13:58;;;;;;;21.05;7.85;;;3.30;99.90;;;;;;5071915;28;20450;-61
2022/12/06 09:16:25;;;;;;;15.88;8.20;;;3.40;99.90;;;;;;5076228;28;20056;-61
2022/12/06 09:18:51;;;;;;;13.95;6.43;;;3.50;99.90;;;;;;5083810;28;20119;-62
2022/12/06 09:21:22;;;;;;;13.63;7.35;;;3.50;99.90;;;;;;5092327;28;20070;-61
2022/12/06 09:23:49;;;;;;;13.75;6.78;;;3.50;99.90;;;;;;5056587;28;20056;-61
2022/12/06 09:26:16;;;;;;;;;;;3.60;99.90;;;;;;5071472;28;20127;-60
2022/12/06 09:28:45;;;;;;;15.57;8.35;;;3.60;99.90;;;;;;5072406;28;19967;-61
2022/12/06 09:31:11;;;;;;;17.20;7.45;;;3.50;99.90;;;;;;5074854;28;20079;-61
2022/12/06 09:33:38;;;;;;;14.98;7.88;;;3.40;99.90;;;;;;5085092;28;20051;-61
2022/12/06 09:36:12;;;;;;;16.45;7.75;;;3.20;99.90;;;;;;5074621;28;20528;-61
2022/12/06 09:38:40;;;;;;;16.10;7.38;;;3.20;99.90;;;;;;5071377;28;20080;-61
2022/12/06 09:41:23;;;;;;;15.45;8.82;;;3.20;99.90;;;;;;5071137;28;20083;-61
2022/12/06 09:44:21;;;;;;;16.83;8.20;;;3.20;99.90;;;;;;5070532;28;20119;-61
2022/12/06 09:47:22;;;;;;;16.70;7.72;;;3.20;99.90;;;;;;5071243;28;20114;-61
2022/12/06 09:50:16;;;;;;;17.33;8.05;;;3.40;99.90;;;;;;5012775;28;20100;-62
2022/12/06 09:53:10;;;;;;;14.65;7.10;;;3.50;99.90;;;;;;5071312;28;20123;-61
2022/12/06 09:56:15;;;;;;;16.48;8.48;;;3.70;99.90;;;;;;5071783;28;20056;-61
2022/12/06 09:58:55;;;;;;;13.32;7.00;;;3.90;99.90;;;;;;5053179;28;20371;-61
2022/12/06 10:01:28;;;;;;;15.85;7.72;;;3.80;99.90;;;;;;5083977;28;20078;-61
2022/12/06 10:04:19;;;;;;;15.40;7.47;;;3.80;99.90;;;;;;5091706;28;20107;-61
2022/12/06 10:06:57;;;;;;;14.60;6.43;;;3.90;99.90;;;;;;5079638;28;20120;-61
2022/12/06 10:09:45;;;;;;;11.50;6.60;;;3.80;99.90;;;;;;5084183;28;20071;-61
2022/12/06 10:12:38;;;;;;;15.27;7.65;;;3.90;99.90;;;;;;5091433;28;20529;-61
2022/12/06 10:15:21;;;;;;;17.17;8.45;;;4.00;99.90;;;;;;5090954;28;20462;-61
2022/12/06 10:18:10;;;;;;;15.20;7.68;;;4.10;99.90;;;;;;5083627;28;20562;-61
2022/12/06 10:20:52;;;;;;;15.90;7.75;;;4.00;99.90;;;;;;5070777;28;20079;-61
2022/12/06 10:23:48;;;;;;;15.35;7.90;;;4.00;99.90;;;;;;5071909;28;20398;-61
2022/12/06 10:26:25;;;;;;;14.82;7.88;;;4.10;99.90;;;;;;5071111;28;20076;-61
2022/12/06 10:29:17;;;;;;;14.73;7.93;;;4.10;99.90;;;;;;5071167;28;20054;-62
2022/12/06 10:31:55;;;;;;;16.75;7.60;;;4.20;99.90;;;;;;5070807;28;20106;-61
2022/12/06 10:34:41;;;;;;;16.73;7.57;;;4.10;99.90;;;;;;5079410;28;20420;-61
2022/12/06 10:37:33;;;;;;;14.85;7.75;;;4.10;99.90;;;;;;5072226;28;20048;-61
2022/12/06 10:40:12;;;;;;;12.05;6.20;;;4.10;99.90;;;;;;5075312;28;20127;-61
2022/12/06 10:43:00;;;;;;;15.55;7.45;;;4.10;99.90;;;;;;5082974;28;20493;-61
2022/12/06 10:48:57;;;;;;;13.32;6.18;;;4.30;99.90;;;;;;5078478;28;20067;-61
2022/12/06 10:52:12;;;;;;;11.80;6.32;;;4.50;99.90;;;;;;5087372;28;20052;-61
2022/12/06 10:55:05;;;;;;;14.20;7.10;;;4.60;99.90;;;;;;5073422;28;20578;-61
2022/12/06 10:58:03;;;;;;;13.15;6.75;;;4.60;99.90;;;;;;5071304;28;20512;-62
2022/12/06 11:00:37;;;;;;;12.07;6.55;;;4.90;99.90;;;;;;5074977;28;20044;-61
2022/12/06 11:03:33;;;;;;;13.18;5.90;;;5.00;99.90;;;;;;5074597;28;20048;-61
2022/12/06 11:06:14;;;;;;;14.77;6.60;;;5.20;99.90;;;;;;5074279;28;20071;-61
2022/12/06 11:08:42;;;;;;;12.45;6.43;;;5.40;99.90;;;;;;5073891;28;20058;-61
2022/12/06 11:11:14;;;;;;;9.82;5.45;;;5.50;99.90;;;;;;5074565;28;20044;-62
2022/12/06 11:13:58;;;;;;;10.88;5.55;;;5.60;99.90;;;;;;5080102;28;20071;-62
2022/12/06 11:16:40;;;;;;;10.75;5.65;;;5.60;99.90;;;;;;5074321;28;20087;-61
2022/12/06 11:19:41;;;;;;;9.90;5.10;;;5.40;99.90;;;;;;5074563;28;20090;-62
2022/12/06 11:22:43;;;;;;;9.98;5.45;;;5.50;99.90;;;;;;5066980;28;20148;-61
2022/12/06 11:25:23;;;;;;;9.90;5.70;;;5.50;99.90;;;;;;5073358;28;20079;-61
2022/12/06 11:28:14;;;;;;;10.32;4.85;;;5.30;99.90;;;;;;5074069;28;20143;-61
2022/12/06 11:30:41;;;;;;;10.43;4.85;;;5.10;99.90;;;;;;5073385;28;20045;-61
2022/12/06 11:33:09;;;;;;;8.90;5.20;;;5.00;99.90;;;;;;5073465;28;20536;-62
2022/12/06 11:35:36;;;;;;;10.27;5.93;;;5.00;99.90;;;;;;5080910;28;20072;-61
2022/12/06 11:38:06;;;;;;;9.50;4.95;;;4.90;99.90;;;;;;5075018;28;20075;-61
2022/12/06 11:40:36;;;;;;;7.82;4.72;;;4.90;99.90;;;;;;5072182;28;20134;-62
2022/12/06 11:43:07;;;;;;;9.57;5.13;;;4.90;99.90;;;;;;5073417;28;20060;-61
2022/12/06 11:45:38;;;;;;;7.80;5.00;;;5.10;99.90;;;;;;5076979;28;20048;-63
2022/12/06 11:48:17;;;;;;;8.00;4.30;;;5.20;99.90;;;;;;5073246;28;20123;-61
2022/12/06 11:50:46;;;;;;;11.52;4.78;;;4.90;99.90;;;;;;5080124;28;20098;-61
2022/12/06 11:53:45;;;;;;;9.40;4.95;;;4.80;99.90;;;;;;5073801;28;20053;-62
2022/12/06 11:56:26;;;;;;;8.93;5.07;;;5.00;99.90;;;;;;5055651;28;20106;-61
2022/12/06 11:59:06;;;;;;;14.23;5.43;;;5.10;99.90;;;;;;5073299;28;20064;-61
2022/12/06 12:01:44;;;;;;;6.78;4.15;;;5.30;99.90;;;;;;5072334;28;20060;-61
2022/12/06 12:04:29;;;;;;;7.35;4.13;;;5.20;99.90;;;;;;5074693;28;20051;-61
2022/12/06 12:07:25;;;;;;;11.32;4.30;;;5.20;99.90;;;;;;5073394;28;20045;-61
2022/12/06 12:10:01;;;;;;;6.85;4.25;;;5.10;99.90;;;;;;5052921;28;20144;-61
2022/12/06 12:15:33;;;;;;;8.23;4.35;;;4.90;99.90;;;;;;5073574;28;20496;-61
2022/12/06 12:18:01;;;;;;;8.15;3.83;;;4.90;99.90;;;;;;5080140;28;20098;-61
2022/12/06 12:20:31;;;;;;;8.88;4.30;;;5.00;99.90;;;;;;5085511;28;20067;-61
2022/12/06 12:23:24;;;;;;;8.10;4.72;;;5.00;99.90;;;;;;5093421;28;20123;-61
2022/12/06 12:26:03;;;;;;;7.05;4.50;;;5.00;99.90;;;;;;5090119;28;20085;-62
2022/12/06 12:28:32;;;;;;;7.95;4.40;;;5.00;99.90;;;;;;5078199;28;20097;-61
2022/12/06 12:31:09;;;;;;;9.02;4.10;;;5.10;99.90;;;;;;5093268;28;20048;-61
2022/12/06 12:33:36;;;;;;;7.00;4.00;;;5.30;99.90;;;;;;5084934;28;20043;-61
2022/12/06 12:36:02;;;;;;;7.63;3.70;;;5.40;99.90;;;;;;5082258;28;20090;-61
2022/12/06 12:38:56;;;;;;;6.97;3.83;;;5.30;99.90;;;;;;5092196;28;20162;-61
2022/12/06 12:41:49;;;;;;;8.65;5.00;;;5.30;99.90;;;;;;5079283;28;20075;-62
2022/12/06 12:44:25;;;;;;;9.55;5.95;;;5.40;99.90;;;;;;5097143;28;20504;-61
2022/12/06 12:47:17;;;;;;;10.25;4.32;;;5.30;99.90;;;;;;5092908;28;20043;-61
2022/12/06 12:49:58;;;;;;;10.07;4.70;;;5.40;99.90;;;;;;5088913;28;20075;-61
2022/12/06 12:52:34;;;;;;;11.43;4.32;;;5.40;99.90;;;;;;5080514;28;20071;-61
2022/12/06 12:55:18;;;;;;;5.82;3.80;;;5.30;99.90;;;;;;5072217;28;20080;-62
2022/12/06 12:57:48;;;;;;;8.27;4.13;;;5.40;99.90;;;;;;5072177;28;20075;-61
2022/12/06 13:00:17;;;;;;;5.57;3.78;;;5.20;99.90;;;;;;5091068;28;20083;-61
2022/12/06 13:02:49;;;;;;;8.40;3.60;;;5.20;99.90;;;;;;5092239;28;20048;-61
2022/12/06 13:05:29;;;;;;;6.20;3.60;;;5.20;99.90;;;;;;5085388;28;20047;-62
2022/12/06 13:08:08;;;;;;;8.13;3.92;;;5.20;99.90;;;;;;5084040;28;20052;-61
2022/12/06 13:10:37;;;;;;;6.13;3.88;;;5.20;99.90;;;;;;5092838;28;20040;-61
2022/12/06 13:13:14;;;;;;;5.30;3.05;;;5.20;99.90;;;;;;5092106;28;20075;-60
2022/12/06 13:15:46;;;;;;;7.95;4.18;;;5.10;99.90;;;;;;5084800;28;20075;-61
2022/12/06 13:18:25;;;;;;;7.72;3.90;;;5.10;99.90;;;;;;5080546;28;20040;-60
2022/12/06 13:20:59;;;;;;;5.60;3.53;;;5.10;99.90;;;;;;5088664;28;20501;-61
2022/12/06 13:23:30;;;;;;;5.18;3.35;;;5.10;99.90;;;;;;5071047;28;20079;-60
2022/12/06 13:26:13;;;;;;;9.13;3.42;;;5.10;99.90;;;;;;5071794;28;20068;-60
2022/12/06 13:28:45;;;;;;;5.65;3.22;;;5.10;99.90;;;;;;5070718;28;20445;-61
2022/12/06 13:31:19;;;;;;;5.90;3.40;;;5.10;99.90;;;;;;5072042;28;20076;-61
2022/12/06 13:34:05;;;;;;;5.13;2.92;;;5.10;99.90;;;;;;5070861;28;20046;-61
2022/12/06 13:36:33;;;;;;;5.95;3.30;;;5.20;99.90;;;;;;5085303;28;20044;-61
2022/12/06 13:39:32;;;;;;;6.97;4.25;;;5.20;99.90;;;;;;5091537;28;20044;-61
2022/12/06 13:42:19;;;;;;;8.10;3.42;;;5.20;99.90;;;;;;5082585;28;20102;-61
2022/12/06 13:44:54;;;;;;;9.15;3.53;;;5.20;99.90;;;;;;5071358;28;20041;-60
2022/12/06 13:47:26;;;;;;;9.80;3.75;;;5.20;99.90;;;;;;5070295;28;20040;-61